Time;durP1;ratioP1;P1;durP2;ratioP2;P2;SDS_P1;SDS_P2;PMS_P1;PMS_P2;Temp;Humidity;BMP_temperature;BMP_pressure;BME280_temperature;BME280_humidity;BME280_pressure;Samples;Min_cycle;Max_cycle;Signal;HPM_P1;HPM_P2
2021/12/17 00:04:37;;;;;;;2.28;1.88;;;20.90;58.30;;;;;;5124729;28;20027;-39
2021/12/17 00:07:11;;;;;;;2.30;1.85;;;21.00;58.30;;;;;;5123681;28;20102;-40
2021/12/17 00:09:38;;;;;;;2.28;1.88;;;20.90;58.20;;;;;;5124681;28;20036;-40
2021/12/17 00:12:05;;;;;;;2.13;1.70;;;20.90;58.20;;;;;;5124567;28;20042;-40
2021/12/17 00:14:37;;;;;;;3.50;2.30;;;20.90;58.10;;;;;;5124383;28;20107;-41
2021/12/17 00:17:05;;;;;;;2.85;1.98;;;20.90;58.20;;;;;;5124366;28;20442;-41
2021/12/17 00:49:34;;;;;;;2.35;2.15;;;21.00;58.30;;;;;;5124083;28;20125;-40
2021/12/17 00:52:01;;;;;;;2.28;2.03;;;21.00;58.40;;;;;;5124241;28;20504;-41
2021/12/17 00:54:33;;;;;;;2.30;2.10;;;21.00;58.40;;;;;;5123565;28;20107;-40
2021/12/17 00:57:12;;;;;;;2.90;2.63;;;21.00;58.50;;;;;;5123494;28;20090;-40
2021/12/17 00:59:38;;;;;;;2.90;2.45;;;21.00;58.50;;;;;;5123681;28;20071;-40
2021/12/17 01:02:11;;;;;;;3.65;2.58;;;21.00;58.50;;;;;;5123988;28;20091;-40
2021/12/17 01:04:39;;;;;;;2.60;2.40;;;21.00;58.40;;;;;;5123528;28;20032;-40
2021/12/17 01:07:06;;;;;;;2.50;2.30;;;21.00;58.40;;;;;;5122767;27;20062;-40
2021/12/17 01:09:32;;;;;;;2.77;2.00;;;20.90;58.30;;;;;;5123673;28;20039;-40
2021/12/17 01:11:58;;;;;;;2.28;2.03;;;20.90;58.30;;;;;;5123422;28;20027;-40
2021/12/17 01:14:26;;;;;;;3.17;2.33;;;20.90;58.30;;;;;;5123479;28;20028;-40
2021/12/17 01:16:53;;;;;;;2.67;2.28;;;20.90;58.20;;;;;;5123398;28;20027;-40
2021/12/17 01:19:47;;;;;;;3.47;2.78;;;21.00;58.40;;;;;;5123292;28;20027;-40
2021/12/17 01:24:46;;;;;;;3.13;2.57;;;21.00;58.40;;;;;;5123634;28;20023;-40
2021/12/17 01:35:29;;;;;;;2.70;2.50;;;21.00;58.50;;;;;;5123140;28;20089;-40
2021/12/17 01:39:01;;;;;;;2.83;2.53;;;21.00;58.50;;;;;;5110832;28;20132;-40
2021/12/17 01:43:24;;;;;;;2.50;2.30;;;20.90;58.40;;;;;;5123420;28;20091;-39
2021/12/17 01:45:50;;;;;;;3.47;2.65;;;20.90;58.40;;;;;;5123144;28;20028;-40
2021/12/17 01:48:21;;;;;;;2.67;2.47;;;20.90;58.40;;;;;;5122768;28;20051;-40
2021/12/17 01:56:39;;;;;;;2.70;2.50;;;21.00;58.50;;;;;;5122095;28;20046;-43
2021/12/17 01:59:25;;;;;;;2.75;2.50;;;21.00;58.50;;;;;;5124192;28;20035;-40
2021/12/17 02:01:53;;;;;;;2.67;2.47;;;21.00;58.60;;;;;;5126316;28;20023;-40
2021/12/17 02:04:19;;;;;;;2.80;2.47;;;21.00;58.70;;;;;;5127213;28;20051;-42
2021/12/17 02:06:45;;;;;;;2.60;2.40;;;21.00;58.60;;;;;;5126461;27;20027;-40
2021/12/17 02:09:32;;;;;;;3.10;2.50;;;20.90;58.50;;;;;;5126613;28;20020;-40
2021/12/17 02:12:59;;;;;;;2.80;2.30;;;20.90;58.50;;;;;;5126901;28;20050;-40
2021/12/17 02:29:10;;;;;;;3.22;2.35;;;21.00;58.70;;;;;;5126758;28;20027;-40
2021/12/17 02:31:36;;;;;;;2.90;2.63;;;21.00;58.70;;;;;;5106102;28;20028;-40
2021/12/17 02:34:18;;;;;;;2.88;2.58;;;21.00;58.70;;;;;;5106310;28;20038;-40
2021/12/17 02:36:45;;;;;;;2.92;2.65;;;21.00;58.70;;;;;;5106467;27;20020;-40
2021/12/17 02:47:25;;;;;;;2.90;2.60;;;20.90;58.50;;;;;;5126034;28;20057;-41
2021/12/17 02:49:51;;;;;;;3.13;2.83;;;20.90;58.60;;;;;;5126592;28;20023;-41
2021/12/17 02:52:18;;;;;;;2.95;2.70;;;21.00;58.70;;;;;;5126293;28;20108;-42
2021/12/17 02:54:44;;;;;;;3.13;2.70;;;21.00;58.60;;;;;;5126265;28;20024;-40
2021/12/17 02:57:11;;;;;;;3.08;2.78;;;21.00;58.80;;;;;;5125716;27;20291;-40
2021/12/17 02:59:37;;;;;;;2.70;2.50;;;21.00;58.80;;;;;;5125852;28;20403;-40
2021/12/17 03:02:04;;;;;;;2.97;2.53;;;21.00;58.80;;;;;;5126178;28;20034;-40
2021/12/17 03:04:31;;;;;;;2.65;2.45;;;21.00;58.70;;;;;;5126230;28;20032;-41
2021/12/17 03:06:58;;;;;;;2.50;2.30;;;21.00;58.70;;;;;;5124690;28;20024;-40
2021/12/17 03:09:43;;;;;;;2.67;2.38;;;20.90;58.60;;;;;;5125370;28;20031;-39
2021/12/17 03:12:28;;;;;;;2.72;2.53;;;20.90;58.60;;;;;;5125861;28;20032;-40
2021/12/17 03:15:06;;;;;;;2.60;2.30;;;20.90;58.60;;;;;;5125929;28;20031;-40
2021/12/17 03:18:11;;;;;;;3.03;2.72;;;20.90;58.60;;;;;;5125587;28;20040;-40
2021/12/17 03:26:35;;;;;;;2.22;2.03;;;21.00;58.80;;;;;;5081643;28;19971;-40
2021/12/17 03:29:04;;;;;;;2.55;2.30;;;21.00;58.90;;;;;;5081441;28;20032;-40
2021/12/17 03:31:30;;;;;;;3.47;2.70;;;21.00;58.90;;;;;;5061792;28;20080;-40
2021/12/17 03:36:42;;;;;;;2.92;2.72;;;21.00;58.90;;;;;;5063684;28;20086;-40
2021/12/17 03:39:08;;;;;;;3.45;2.50;;;20.90;58.80;;;;;;5078862;28;20086;-39
2021/12/17 03:41:39;;;;;;;3.53;2.95;;;20.90;58.80;;;;;;5081178;28;20139;-40
2021/12/17 03:44:06;;;;;;;2.80;2.50;;;20.90;58.80;;;;;;5081910;28;20032;-40
2021/12/17 03:46:32;;;;;;;2.58;2.38;;;20.90;58.80;;;;;;5081466;28;20051;-40
2021/12/17 03:48:59;;;;;;;6.50;2.65;;;20.90;58.80;;;;;;5081428;28;20053;-40
2021/12/17 03:51:25;;;;;;;3.72;2.70;;;20.90;58.80;;;;;;5063510;28;20025;-40
2021/12/17 03:53:54;;;;;;;3.17;2.70;;;20.90;58.80;;;;;;5061621;28;20033;-40
2021/12/17 03:56:20;;;;;;;2.70;2.50;;;20.90;58.80;;;;;;5073236;28;20519;-40
2021/12/17 03:58:49;;;;;;;3.08;2.65;;;20.90;58.80;;;;;;5068886;28;20028;-40
2021/12/17 04:01:15;;;;;;;3.38;2.47;;;20.90;58.90;;;;;;5120730;28;20436;-40
2021/12/17 04:03:41;;;;;;;2.87;2.57;;;21.00;59.00;;;;;;5124044;28;20024;-40
2021/12/17 04:06:07;;;;;;;2.58;2.38;;;21.00;58.90;;;;;;5124771;28;20050;-40
2021/12/17 04:08:34;;;;;;;3.15;2.85;;;21.00;59.10;;;;;;5123056;28;20035;-40
2021/12/17 04:11:05;;;;;;;3.10;2.80;;;21.00;59.10;;;;;;5124143;28;20039;-40
2021/12/17 04:13:35;;;;;;;3.63;2.85;;;21.00;59.10;;;;;;5104179;28;20028;-40
2021/12/17 04:16:08;;;;;;;2.90;2.60;;;20.90;59.10;;;;;;5112279;28;20100;-39
2021/12/17 04:18:35;;;;;;;3.35;2.55;;;20.90;59.10;;;;;;5122762;28;20056;-40
2021/12/17 04:21:03;;;;;;;3.05;2.72;;;20.90;59.10;;;;;;5125845;27;20052;-41
2021/12/17 04:23:31;;;;;;;2.70;2.42;;;20.90;59.10;;;;;;5103587;28;20021;-40
2021/12/17 04:25:58;;;;;;;3.00;2.70;;;20.90;59.10;;;;;;5121257;28;20079;-40
2021/12/17 04:28:24;;;;;;;3.03;2.72;;;20.90;59.10;;;;;;5123124;28;20077;-40
2021/12/17 04:30:51;;;;;;;3.35;2.85;;;20.80;59.00;;;;;;5108866;28;20034;-40
2021/12/17 04:33:17;;;;;;;2.55;2.35;;;20.90;58.90;;;;;;5103380;28;20028;-40
2021/12/17 04:35:43;;;;;;;2.92;2.53;;;20.90;59.10;;;;;;5103758;28;20111;-39
2021/12/17 04:38:11;;;;;;;2.97;2.70;;;21.00;59.20;;;;;;5116807;28;20050;-40
2021/12/17 04:40:39;;;;;;;2.65;2.45;;;21.00;59.10;;;;;;5123800;28;20260;-40
2021/12/17 04:43:31;;;;;;;3.38;3.05;;;21.00;59.20;;;;;;5123880;28;20536;-40
2021/12/17 04:46:13;;;;;;;3.20;2.85;;;21.00;59.30;;;;;;5116262;28;20044;-41
2021/12/17 04:59:37;;;;;;;5.50;3.08;;;20.90;59.30;;;;;;5111352;28;20057;-39
2021/12/17 05:02:04;;;;;;;3.90;3.08;;;20.90;59.30;;;;;;5122776;28;20023;-41
2021/12/17 05:04:30;;;;;;;4.07;3.15;;;20.80;59.20;;;;;;5103094;28;20477;-39
2021/12/17 05:06:56;;;;;;;3.10;2.58;;;20.80;59.20;;;;;;5105885;28;20015;-39
2021/12/17 05:09:34;;;;;;;2.97;2.67;;;20.80;59.20;;;;;;5123592;28;20023;-40
2021/12/17 05:20:28;;;;;;;3.20;2.88;;;20.80;59.20;;;;;;5113467;28;20044;-39
2021/12/17 05:22:59;;;;;;;5.63;3.10;;;20.80;59.20;;;;;;5102789;28;20118;-40
2021/12/17 05:25:29;;;;;;;4.22;3.20;;;20.70;59.20;;;;;;5102499;28;20063;-40
2021/12/17 05:27:59;;;;;;;4.20;3.00;;;20.70;59.20;;;;;;5102730;28;20028;-40
2021/12/17 05:30:27;;;;;;;3.60;3.20;;;20.80;59.10;;;;;;5102767;28;20031;-40
2021/12/17 05:32:53;;;;;;;3.92;3.10;;;20.90;59.40;;;;;;5084294;28;20099;-39
2021/12/17 05:35:20;;;;;;;4.80;3.08;;;20.90;59.40;;;;;;5102411;28;20020;-39
2021/12/17 05:37:46;;;;;;;3.17;2.88;;;20.90;59.40;;;;;;5110593;28;20123;-39
2021/12/17 05:40:12;;;;;;;4.18;3.10;;;20.90;59.50;;;;;;5114778;28;20087;-39
2021/12/17 05:42:40;;;;;;;3.85;3.42;;;20.90;59.60;;;;;;5122760;28;20028;-41
2021/12/17 05:45:20;;;;;;;4.80;3.47;;;20.90;59.50;;;;;;5122963;28;20020;-40
2021/12/17 05:47:46;;;;;;;4.30;3.70;;;20.80;59.50;;;;;;5122661;28;20051;-39
2021/12/17 05:50:12;;;;;;;4.22;3.83;;;20.80;59.50;;;;;;5122959;28;20189;-39
2021/12/17 05:52:38;;;;;;;3.90;3.10;;;20.80;59.60;;;;;;5122879;28;20024;-39
2021/12/17 05:55:05;;;;;;;5.22;3.40;;;20.80;59.50;;;;;;5121994;28;20050;-40
2021/12/17 05:57:31;;;;;;;4.20;3.70;;;20.80;59.30;;;;;;5122327;28;20047;-40
2021/12/17 05:59:57;;;;;;;4.82;4.00;;;20.90;59.60;;;;;;5122268;28;20050;-40
2021/12/17 06:02:23;;;;;;;4.97;4.20;;;20.90;59.60;;;;;;5122316;28;20051;-42
2021/12/17 06:04:49;;;;;;;5.10;3.70;;;20.90;59.60;;;;;;5122666;28;20020;-43
2021/12/17 06:07:27;;;;;;;5.15;4.10;;;20.90;59.80;;;;;;5121461;28;20020;-40
2021/12/17 06:09:53;;;;;;;;;;;20.90;59.70;;;;;;5122936;28;20466;-39
2021/12/17 06:12:19;;;;;;;4.93;4.18;;;20.90;59.80;;;;;;5103271;28;19908;-40
2021/12/17 06:14:45;;;;;;;6.35;4.18;;;20.90;59.80;;;;;;5102270;28;20028;-39
2021/12/17 06:17:11;;;;;;;4.40;3.80;;;20.90;59.70;;;;;;5102070;28;20033;-39
2021/12/17 06:19:37;;;;;;;4.68;3.78;;;20.90;59.70;;;;;;5102207;28;20846;-39
2021/12/17 06:22:04;;;;;;;5.32;4.10;;;20.80;59.70;;;;;;5102363;28;20020;-40
2021/12/17 06:24:30;;;;;;;4.10;3.65;;;20.80;59.70;;;;;;5102150;28;20031;-39
2021/12/17 06:26:56;;;;;;;4.57;3.92;;;20.80;59.70;;;;;;5134247;28;20020;-39
2021/12/17 06:29:22;;;;;;;4.65;3.85;;;20.80;59.70;;;;;;5118985;28;20479;-38
2021/12/17 06:31:48;;;;;;;4.65;3.90;;;20.80;59.70;;;;;;5102219;28;20043;-39
2021/12/17 06:34:14;;;;;;;5.70;4.45;;;20.80;59.60;;;;;;5102231;28;20028;-39
2021/12/17 06:36:40;;;;;;;5.47;4.53;;;20.80;59.60;;;;;;5102316;28;20104;-39
2021/12/17 06:39:06;;;;;;;5.70;4.20;;;20.90;59.70;;;;;;5104871;28;20095;-39
2021/12/17 06:41:32;;;;;;;5.60;4.18;;;20.90;59.80;;;;;;5122055;28;20195;-39
2021/12/17 06:44:00;;;;;;;5.65;4.20;;;20.90;59.80;;;;;;5122491;28;20031;-40
2021/12/17 06:46:35;;;;;;;;;;;20.90;59.90;;;;;;5117157;28;20056;-40
2021/12/17 06:54:44;;;;;;;5.78;4.43;;;20.90;59.90;;;;;;5105517;28;20027;-40
2021/12/17 07:00:12;;;;;;;5.38;4.38;;;20.80;59.80;;;;;;5105599;28;20130;-40
2021/12/17 07:06:00;;;;;;;4.82;3.90;;;20.80;59.80;;;;;;5103989;28;20040;-39
2021/12/17 07:09:32;;;;;;;6.13;4.13;;;20.80;59.80;;;;;;5116237;28;20040;-39
2021/12/17 07:11:23;;;;;;;4.82;3.78;;;20.80;59.80;;;;;;5102074;28;20066;-39
2021/12/17 07:22:31;;;;;;;6.20;3.78;;;20.90;59.90;;;;;;5105097;28;20074;-40
2021/12/17 07:40:10;;;;;;;4.15;3.70;;;20.80;59.90;;;;;;5125143;28;20138;-39
2021/12/17 07:42:36;;;;;;;4.22;3.83;;;20.80;59.90;;;;;;5124571;27;20520;-39
2021/12/17 07:45:03;;;;;;;5.57;4.22;;;20.80;59.80;;;;;;5125158;28;20035;-41
2021/12/17 07:47:29;;;;;;;4.72;3.90;;;20.90;60.00;;;;;;5124398;28;20078;-40
2021/12/17 07:49:55;;;;;;;4.90;4.05;;;20.90;59.90;;;;;;5124979;28;20027;-39
2021/12/17 07:52:21;;;;;;;4.82;4.10;;;20.90;60.00;;;;;;5124089;28;20559;-39
2021/12/17 07:54:47;;;;;;;5.43;4.15;;;20.90;60.00;;;;;;5124819;28;20051;-39
2021/12/17 07:57:14;;;;;;;4.75;3.83;;;20.90;60.00;;;;;;5123824;28;20116;-39
2021/12/17 07:59:40;;;;;;;4.47;4.05;;;20.90;60.10;;;;;;5124591;28;20046;-39
2021/12/17 08:02:07;;;;;;;5.20;3.93;;;20.80;60.00;;;;;;5124394;28;20016;-39
2021/12/17 08:04:33;;;;;;;4.25;3.83;;;20.80;60.00;;;;;;5124557;28;20042;-39
2021/12/17 08:06:59;;;;;;;5.53;3.90;;;20.80;60.00;;;;;;5123078;28;20038;-39
2021/12/17 08:09:28;;;;;;;4.88;4.15;;;20.80;60.00;;;;;;5122829;28;20260;-40
2021/12/17 08:11:56;;;;;;;4.30;3.90;;;20.80;59.90;;;;;;5124051;28;20034;-39
2021/12/17 08:14:24;;;;;;;4.20;3.70;;;20.90;60.00;;;;;;5124331;28;20485;-40
2021/12/17 08:17:42;;;;;;;4.57;3.72;;;20.90;60.00;;;;;;5124456;28;20023;-40
2021/12/17 08:25:16;;;;;;;5.05;3.97;;;20.90;60.10;;;;;;5124214;28;20081;-40
2021/12/17 08:32:42;;;;;;;4.20;3.80;;;20.80;60.10;;;;;;5113338;28;20019;-40
2021/12/17 08:35:09;;;;;;;4.00;3.50;;;20.80;60.10;;;;;;5124053;28;20050;-39
2021/12/17 08:37:35;;;;;;;4.03;3.63;;;20.80;60.10;;;;;;5122604;28;20047;-39
2021/12/17 08:40:01;;;;;;;4.13;3.72;;;20.80;60.10;;;;;;5123579;28;20032;-40
2021/12/17 08:42:27;;;;;;;4.25;3.47;;;20.70;60.10;;;;;;5122252;28;20027;-39
2021/12/17 08:44:55;;;;;;;4.53;3.80;;;20.70;60.00;;;;;;5108420;28;20043;-41
2021/12/17 08:47:21;;;;;;;4.18;3.70;;;20.70;60.00;;;;;;5119246;28;20387;-39
2021/12/17 08:49:49;;;;;;;4.07;3.60;;;20.70;60.00;;;;;;5123369;28;20087;-39
2021/12/17 08:52:15;;;;;;;3.55;3.22;;;20.70;59.90;;;;;;5123729;28;20027;-39
2021/12/17 08:54:42;;;;;;;5.53;3.95;;;20.80;60.10;;;;;;5123779;28;20337;-40
2021/12/17 08:57:09;;;;;;;3.38;3.08;;;20.90;60.10;;;;;;5123187;28;20032;-39
2021/12/17 08:59:36;;;;;;;3.95;3.55;;;20.90;60.10;;;;;;5123522;28;20070;-39
2021/12/17 09:02:02;;;;;;;3.50;3.17;;;20.90;60.20;;;;;;5107063;28;20050;-41
2021/12/17 09:04:29;;;;;;;3.33;3.03;;;20.90;60.30;;;;;;5103136;28;20028;-40
2021/12/17 09:06:55;;;;;;;3.58;3.00;;;20.80;60.20;;;;;;5102952;28;20067;-40
2021/12/17 09:09:22;;;;;;;3.38;3.08;;;20.80;60.30;;;;;;5107685;28;20032;-39
2021/12/17 09:11:49;;;;;;;4.32;3.47;;;20.80;60.30;;;;;;5122915;28;20063;-39
2021/12/17 09:14:19;;;;;;;4.22;3.50;;;20.80;60.30;;;;;;5123446;28;20126;-39
2021/12/17 09:16:50;;;;;;;3.40;3.10;;;20.80;60.30;;;;;;5123293;28;20039;-39
2021/12/17 09:19:16;;;;;;;3.85;3.47;;;20.70;60.30;;;;;;5104215;28;20046;-41
2021/12/17 09:21:43;;;;;;;3.40;2.90;;;20.80;60.00;;;;;;5102614;28;20024;-39
2021/12/17 09:24:09;;;;;;;3.70;3.30;;;20.80;60.30;;;;;;5103053;28;20114;-39
2021/12/17 09:26:35;;;;;;;3.10;2.80;;;20.90;60.40;;;;;;5102661;28;20024;-39
2021/12/17 09:29:02;;;;;;;3.15;2.85;;;20.90;60.30;;;;;;5102722;28;20035;-39
2021/12/17 09:31:28;;;;;;;3.38;3.03;;;20.90;60.50;;;;;;5102468;28;20024;-39
2021/12/17 09:33:54;;;;;;;3.10;2.80;;;20.90;60.50;;;;;;5102546;28;20036;-37
2021/12/17 09:36:20;;;;;;;3.28;2.97;;;20.80;60.40;;;;;;5103357;28;20039;-39
2021/12/17 09:38:49;;;;;;;3.20;2.90;;;20.80;60.40;;;;;;5116744;28;20040;-39
2021/12/17 09:41:16;;;;;;;3.30;2.88;;;20.80;60.40;;;;;;5122892;28;20151;-40
2021/12/17 09:43:43;;;;;;;3.50;2.97;;;20.80;60.40;;;;;;5123055;28;20128;-39
2021/12/17 09:46:09;;;;;;;3.40;3.10;;;20.70;60.30;;;;;;5123082;28;20027;-39
2021/12/17 09:48:36;;;;;;;3.10;2.65;;;20.70;60.40;;;;;;5122658;28;20059;-40
2021/12/17 09:51:04;;;;;;;3.00;2.67;;;20.70;60.30;;;;;;5122285;28;20024;-39
2021/12/17 09:53:30;;;;;;;3.20;2.90;;;20.70;60.30;;;;;;5102571;28;20115;-39
2021/12/17 09:55:57;;;;;;;3.72;3.03;;;20.80;60.20;;;;;;5102808;28;20104;-39
2021/12/17 09:58:23;;;;;;;3.10;2.80;;;20.80;60.30;;;;;;5101878;28;20044;-39
2021/12/17 10:00:49;;;;;;;3.20;2.90;;;20.90;60.40;;;;;;5116632;28;20079;-39
2021/12/17 10:03:16;;;;;;;2.85;2.60;;;20.90;60.40;;;;;;5122419;28;20027;-39
2021/12/17 10:05:43;;;;;;;3.28;2.97;;;20.90;60.40;;;;;;5122835;28;20032;-40
2021/12/17 10:08:17;;;;;;;2.85;2.58;;;20.90;60.50;;;;;;5121060;28;20032;-39
2021/12/17 10:10:53;;;;;;;4.40;3.38;;;20.90;60.50;;;;;;5122862;28;20180;-39
2021/12/17 10:13:27;;;;;;;3.58;3.05;;;20.80;60.50;;;;;;5122656;28;20149;-40
2021/12/17 10:15:58;;;;;;;2.83;2.60;;;20.80;60.50;;;;;;5122743;28;20100;-40
2021/12/17 10:18:35;;;;;;;2.85;2.65;;;20.80;60.50;;;;;;5122701;28;20054;-39
2021/12/17 10:21:09;;;;;;;3.30;3.00;;;20.80;60.50;;;;;;5125072;28;20388;-40
2021/12/17 10:23:36;;;;;;;2.97;2.60;;;20.80;60.50;;;;;;5126848;28;20031;-39
2021/12/17 10:26:02;;;;;;;3.20;2.90;;;20.70;60.50;;;;;;5118384;28;20021;-40
2021/12/17 10:28:29;;;;;;;3.93;3.50;;;20.70;60.50;;;;;;5105810;28;20636;-39
2021/12/17 10:30:56;;;;;;;3.45;3.00;;;20.70;60.30;;;;;;5106186;28;20031;-39
2021/12/17 10:33:24;;;;;;;2.60;2.40;;;20.80;60.40;;;;;;5138237;27;20573;-39
2021/12/17 10:35:51;;;;;;;3.30;3.00;;;20.80;60.50;;;;;;5106072;28;20032;-39
2021/12/17 10:38:18;;;;;;;;;;;20.90;60.60;;;;;;5120986;28;20104;-40
2021/12/17 10:41:09;;;;;;;3.20;2.90;;;20.90;60.70;;;;;;5126258;28;19912;-39
2021/12/17 10:43:39;;;;;;;2.72;2.50;;;20.90;60.70;;;;;;5125110;28;20135;-39
2021/12/17 10:46:10;;;;;;;3.05;2.78;;;20.80;60.60;;;;;;5126221;28;20024;-40
2021/12/17 10:51:18;;;;;;;3.10;2.80;;;20.80;60.70;;;;;;5126015;28;20024;-39
2021/12/17 10:53:45;;;;;;;2.90;2.55;;;20.80;60.70;;;;;;5126201;28;20088;-39
2021/12/17 10:56:16;;;;;;;3.13;2.83;;;20.70;60.70;;;;;;5126104;28;20057;-39
2021/12/17 10:58:59;;;;;;;2.85;2.60;;;20.70;60.70;;;;;;5124333;28;20047;-39
2021/12/17 11:01:32;;;;;;;2.90;2.65;;;20.70;60.50;;;;;;5106201;28;20092;-39
2021/12/17 11:04:20;;;;;;;2.50;2.30;;;20.80;60.50;;;;;;5105376;28;20052;-39
2021/12/17 11:06:54;;;;;;;3.10;2.80;;;20.80;60.60;;;;;;5105411;28;20083;-39
2021/12/17 11:09:45;;;;;;;2.88;2.58;;;20.90;60.70;;;;;;5105244;28;20028;-40
2021/12/17 11:12:13;;;;;;;2.67;2.47;;;20.80;60.80;;;;;;5104930;28;20031;-39
2021/12/17 11:14:43;;;;;;;2.78;2.47;;;20.80;60.80;;;;;;5105336;28;20057;-39
2021/12/17 11:17:13;;;;;;;3.20;2.88;;;20.80;60.80;;;;;;5119027;28;20051;-39
2021/12/17 11:19:40;;;;;;;2.85;2.60;;;20.80;60.90;;;;;;5125683;28;20031;-39
2021/12/17 11:22:06;;;;;;;5.17;2.40;;;20.80;60.80;;;;;;5125164;28;20051;-39
2021/12/17 11:24:33;;;;;;;2.67;2.40;;;20.70;60.70;;;;;;5125664;27;20127;-39
2021/12/17 11:27:01;;;;;;;2.80;2.60;;;20.70;60.70;;;;;;5125145;28;20028;-39
2021/12/17 11:29:27;;;;;;;2.70;2.50;;;20.70;60.70;;;;;;5120287;28;20040;-39
2021/12/17 11:31:53;;;;;;;2.97;2.70;;;20.70;60.70;;;;;;5114038;28;21117;-40
2021/12/17 11:34:19;;;;;;;2.33;2.13;;;20.70;60.70;;;;;;5115524;28;20076;-39
2021/12/17 11:36:46;;;;;;;2.78;2.58;;;20.70;60.40;;;;;;5124444;28;20392;-39
2021/12/17 11:39:31;;;;;;;2.50;2.30;;;20.80;61.50;;;;;;5124928;28;20039;-39
2021/12/17 11:42:31;;;;;;;2.97;2.67;;;20.90;60.80;;;;;;5125348;27;20076;-46
2021/12/17 11:47:43;;;;;;;2.60;2.38;;;20.80;60.90;;;;;;5124873;28;20058;-40
2021/12/17 11:50:10;;;;;;;2.60;2.40;;;20.80;60.90;;;;;;5125038;28;20024;-39
2021/12/17 11:53:02;;;;;;;;;;;20.80;60.90;;;;;;5124986;28;20404;-40
2021/12/17 11:55:33;;;;;;;2.72;2.30;;;20.80;60.90;;;;;;5090545;28;19934;-39
2021/12/17 11:58:10;;;;;;;2.70;2.50;;;20.70;60.90;;;;;;5103980;28;20067;-39
2021/12/17 12:00:42;;;;;;;2.65;2.30;;;20.70;60.80;;;;;;5117496;28;20016;-39
2021/12/17 12:03:16;;;;;;;2.65;2.45;;;20.70;60.80;;;;;;5124468;28;20015;-39
2021/12/17 12:05:43;;;;;;;2.60;2.40;;;20.80;60.70;;;;;;5124549;28;20026;-39
2021/12/17 12:08:37;;;;;;;2.50;2.30;;;20.80;60.80;;;;;;5113741;28;20057;-39
2021/12/17 12:11:09;;;;;;;2.33;2.13;;;20.90;60.90;;;;;;5124315;28;20031;-39
2021/12/17 12:13:37;;;;;;;2.30;2.10;;;20.90;60.90;;;;;;5123234;28;20031;-39
2021/12/17 12:16:04;;;;;;;2.75;2.40;;;20.90;61.00;;;;;;5124575;28;20055;-38
2021/12/17 12:18:45;;;;;;;2.63;2.42;;;20.80;60.90;;;;;;5124319;28;20680;-39
2021/12/17 12:21:15;;;;;;;5.10;2.38;;;20.80;61.00;;;;;;5124466;28;20027;-39
2021/12/17 12:23:43;;;;;;;2.40;2.20;;;20.80;61.00;;;;;;5124075;28;20077;-39
2021/12/17 12:26:17;;;;;;;2.50;2.30;;;20.80;61.00;;;;;;5106584;28;20024;-40
2021/12/17 12:29:05;;;;;;;2.40;2.20;;;20.70;60.90;;;;;;5103360;28;20032;-39
2021/12/17 12:31:36;;;;;;;2.58;2.38;;;20.70;61.00;;;;;;5103826;28;20717;-40
2021/12/17 12:34:06;;;;;;;2.03;1.88;;;20.70;60.90;;;;;;5103637;28;20044;-39
2021/12/17 12:36:54;;;;;;;2.35;2.13;;;20.70;60.70;;;;;;5104315;28;20491;-40
2021/12/17 12:39:42;;;;;;;2.30;2.10;;;20.80;60.90;;;;;;5108275;28;20035;-40
2021/12/17 12:42:24;;;;;;;2.10;1.80;;;20.80;60.90;;;;;;5122909;28;20054;-41
2021/12/17 12:44:50;;;;;;;2.60;2.00;;;20.90;60.90;;;;;;5123775;28;20061;-39
2021/12/17 12:47:36;;;;;;;1.88;1.77;;;20.90;61.00;;;;;;5108531;28;20108;-40
2021/12/17 12:50:15;;;;;;;2.13;1.92;;;20.80;61.00;;;;;;5103510;28;20555;-39
2021/12/17 12:52:45;;;;;;;2.28;2.08;;;20.80;61.00;;;;;;5103603;28;20024;-39
2021/12/17 12:55:31;;;;;;;2.10;1.90;;;20.80;61.10;;;;;;5103209;28;20035;-39
2021/12/17 12:58:03;;;;;;;1.80;1.70;;;20.70;61.00;;;;;;5102834;28;20048;-40
2021/12/17 13:00:35;;;;;;;1.90;1.80;;;20.70;61.00;;;;;;5115453;28;20020;-39
2021/12/17 13:03:04;;;;;;;2.22;2.00;;;20.70;61.00;;;;;;5123696;28;20058;-40
2021/12/17 13:05:31;;;;;;;1.98;1.88;;;20.70;61.00;;;;;;5123350;28;20031;-39
2021/12/17 13:07:58;;;;;;;1.50;1.40;;;20.70;60.80;;;;;;5110952;28;20032;-39
2021/12/17 13:10:25;;;;;;;1.65;1.55;;;20.80;61.10;;;;;;5117087;28;20041;-39
2021/12/17 13:13:02;;;;;;;1.60;1.48;;;20.80;61.00;;;;;;5123390;28;20582;-39
2021/12/17 13:23:31;;;;;;;1.75;1.65;;;20.80;61.10;;;;;;5103163;28;20464;-38
2021/12/17 13:26:04;;;;;;;2.05;1.60;;;20.80;61.10;;;;;;5102744;28;20435;-39
2021/12/17 13:28:55;;;;;;;1.90;1.80;;;20.70;61.10;;;;;;5101279;28;20028;-39
2021/12/17 13:31:37;;;;;;;1.80;1.70;;;20.70;61.10;;;;;;5111539;28;20019;-40
2021/12/17 13:34:22;;;;;;;1.88;1.77;;;20.70;61.10;;;;;;5107845;28;20067;-40
2021/12/17 13:37:06;;;;;;;1.70;1.60;;;20.70;61.10;;;;;;5102439;28;20050;-39
2021/12/17 13:39:39;;;;;;;1.73;1.63;;;20.70;61.10;;;;;;5109159;28;20462;-39
2021/12/17 13:42:05;;;;;;;1.98;1.77;;;20.70;61.10;;;;;;5123221;28;20028;-40
2021/12/17 13:44:37;;;;;;;1.73;1.58;;;20.70;60.90;;;;;;5123073;28;20048;-40
2021/12/17 13:47:07;;;;;;;1.58;1.48;;;20.80;61.10;;;;;;5122917;28;20032;-39
2021/12/17 13:49:34;;;;;;;1.45;1.35;;;20.80;61.10;;;;;;5118431;28;20048;-39
2021/12/17 13:52:00;;;;;;;1.73;1.48;;;20.90;61.10;;;;;;5105749;28;20539;-39
2021/12/17 13:54:26;;;;;;;1.38;1.27;;;20.80;61.10;;;;;;5122445;28;20039;-40
2021/12/17 13:56:59;;;;;;;1.63;1.52;;;20.80;61.20;;;;;;5105981;28;20031;-40
2021/12/17 13:59:33;;;;;;;1.52;1.42;;;20.80;61.30;;;;;;5124499;28;20036;-40
2021/12/17 14:02:05;;;;;;;1.92;1.83;;;20.80;61.30;;;;;;5122520;28;20023;-40
2021/12/17 14:04:31;;;;;;;1.65;1.55;;;20.80;61.40;;;;;;5123892;28;20034;-40
2021/12/17 14:07:04;;;;;;;1.58;1.48;;;20.70;61.30;;;;;;5123664;28;20024;-41
2021/12/17 14:09:30;;;;;;;1.58;1.48;;;20.70;61.30;;;;;;5123128;28;20031;-39
2021/12/17 14:12:06;;;;;;;1.50;1.40;;;20.70;61.30;;;;;;5124842;28;20027;-39
2021/12/17 14:14:33;;;;;;;1.90;1.80;;;20.70;61.20;;;;;;5106413;28;20083;-39
2021/12/17 14:17:01;;;;;;;1.52;1.42;;;20.70;61.20;;;;;;5124437;28;20027;-40
2021/12/17 14:19:44;;;;;;;1.63;1.52;;;20.70;61.20;;;;;;5124066;28;20119;-39
2021/12/17 14:22:40;;;;;;;1.63;1.52;;;20.70;61.00;;;;;;5124388;28;20445;-39
2021/12/17 14:25:45;;;;;;;1.40;1.30;;;20.80;61.10;;;;;;5123293;28;20028;-40
2021/12/17 14:28:11;;;;;;;1.30;1.20;;;20.80;61.20;;;;;;5060623;28;20024;-40
2021/12/17 14:30:37;;;;;;;1.30;1.20;;;20.80;61.30;;;;;;5060587;28;20076;-40
2021/12/17 14:33:13;;;;;;;1.50;1.40;;;20.80;61.40;;;;;;5061145;28;20033;-39
2021/12/17 14:35:47;;;;;;;1.40;1.30;;;20.80;61.40;;;;;;5060608;28;20037;-40
2021/12/17 14:38:14;;;;;;;1.48;1.38;;;20.80;61.50;;;;;;5060804;28;20041;-41
2021/12/17 14:40:50;;;;;;;1.88;1.67;;;20.80;61.50;;;;;;5060723;28;20582;-39
2021/12/17 14:43:24;;;;;;;1.40;1.30;;;20.80;61.50;;;;;;5060462;28;20136;-41
2021/12/17 14:46:18;;;;;;;1.52;1.30;;;20.70;61.50;;;;;;5060962;28;20036;-39
2021/12/17 15:04:43;;;;;;;1.35;1.25;;;20.90;61.70;;;;;;5123069;28;20111;-39
2021/12/17 15:07:09;;;;;;;1.37;1.27;;;20.90;61.70;;;;;;5121321;28;20040;-39
2021/12/17 15:09:38;;;;;;;1.30;1.10;;;20.80;61.70;;;;;;5123855;28;20051;-40
2021/12/17 15:12:24;;;;;;;1.40;1.30;;;20.80;61.70;;;;;;5121129;28;20028;-39
2021/12/17 15:14:50;;;;;;;1.30;1.20;;;20.80;61.70;;;;;;5121980;28;20056;-39
2021/12/17 15:17:17;;;;;;;1.63;1.52;;;20.80;61.80;;;;;;5123499;28;20065;-41
2021/12/17 15:19:43;;;;;;;1.33;1.23;;;20.80;61.70;;;;;;5123719;28;20290;-39
2021/12/17 15:22:09;;;;;;;1.40;1.30;;;20.80;61.70;;;;;;5121420;28;20024;-39
2021/12/17 15:24:35;;;;;;;1.65;1.30;;;20.80;61.70;;;;;;5122929;28;20038;-38
2021/12/17 15:27:01;;;;;;;1.30;1.20;;;20.80;61.70;;;;;;5123679;28;20032;-41
2021/12/17 15:29:27;;;;;;;1.38;1.27;;;20.80;61.80;;;;;;5123024;28;20027;-39
2021/12/17 15:31:53;;;;;;;1.00;1.00;;;20.70;61.70;;;;;;5123226;28;20500;-39
2021/12/17 15:34:19;;;;;;;1.30;1.20;;;20.70;61.70;;;;;;5123408;28;20032;-39
2021/12/17 15:36:46;;;;;;;1.30;1.20;;;20.70;61.60;;;;;;5122124;28;20040;-40
2021/12/17 15:39:12;;;;;;;1.13;1.02;;;20.70;61.60;;;;;;5122907;28;20054;-38
2021/12/17 15:41:41;;;;;;;1.40;1.30;;;20.70;61.60;;;;;;5123325;28;20031;-39
2021/12/17 15:44:10;;;;;;;1.20;1.10;;;20.70;61.60;;;;;;5121617;28;20034;-39
2021/12/17 15:46:37;;;;;;;1.15;1.05;;;20.70;61.60;;;;;;5122321;28;20041;-38
2021/12/17 15:49:04;;;;;;;1.40;1.30;;;20.70;61.70;;;;;;5122980;28;20614;-40
2021/12/17 15:51:30;;;;;;;1.35;1.25;;;20.70;61.50;;;;;;5123283;28;20039;-39
2021/12/17 15:53:57;;;;;;;1.25;1.15;;;20.80;61.50;;;;;;5122220;28;20024;-39
2021/12/17 15:56:23;;;;;;;1.48;1.27;;;20.80;61.50;;;;;;5123351;28;20114;-39
2021/12/17 15:58:49;;;;;;;0.90;0.88;;;20.90;61.80;;;;;;5122445;28;20040;-39
2021/12/17 16:01:15;;;;;;;1.17;1.08;;;20.90;61.80;;;;;;5123178;28;20023;-39
2021/12/17 16:03:43;;;;;;;1.15;1.05;;;20.90;61.70;;;;;;5122608;28;20028;-39